Station info - map view · info · telemetry · weather · raw · status · beacons · messages · bulletins · browse · moving · my account
Callsign, ship name or locator: Clear       
It is possible to search using wildcards (*?) after a prefix. Example: OH*
APRS station K0JOH-9 - show graphs
Map loading...
Comment: 145.310MHz T088 -060 MHJC PATROL 19/ CO4x4RnR
Mic-E message: Custom 1
Location: 40°00.01' N 105°13.89' W - locator DN70JA20FA - show map - static map
2.3 miles Southeast bearing 116° from Boulder, Boulder County, Colorado, United States [?]
5.4 miles Southwest bearing 216° from Gunbarrel, Boulder County, Colorado, United States
22.3 miles Northwest bearing 324° from Denver, Denver County, Colorado, United States
28.2 miles Northwest bearing 312° from Aurora, Adams County, Colorado, United States
Last position: 2019-07-07 11:41:43 CDT (15d 1h53m ago)
2019-07-07 10:41:43 MDT local time at Boulder, United States [?]
Altitude: 5312 ft
Course: 320°
Speed: 14 MPH
Device: Yaesu: FTM-400DR (rig)
Last path: K0JOH-9>EA0PPQ via WIDE1-1,WIDE2-1,qAR,W0UPS-15 (good)
Positions stored: 11173
Stations near current position of K0JOH-9 - show more
callsign distance last heard - CDT      callsign distance last heard - CDT
W0BLT-7276.7 yards 244°2019-06-30 12:01:26 N2XGL-91.2 miles 6°2019-07-22 07:17:28
KE0OTQ-91.3 miles 343°2019-07-22 09:21:09 KE0TIJ-51.3 miles 48°2019-07-18 10:00:45
K0SWE-71.7 miles 316°2019-07-08 18:35:14 EW36081.7 miles 90°2019-07-22 13:33:30
K5RHD-91.8 miles 311°2019-07-22 08:57:51 K0RZ1.9 miles 140°2019-07-22 13:18:40
K0HAX-102.1 miles 331°2019-07-21 09:17:37 BOUSVR1OA2.1 miles 288°2019-07-05 21:19:56
AE6L-92.2 miles 345°2019-07-20 17:28:44 AA0NS2.3 miles 296°2019-07-13 14:30:38
W1ANT-N2.3 miles 296°2019-07-21 20:03:14 CW79442.5 miles 213°2019-07-22 13:33:11
KC0GBK-92.6 miles 9°2019-07-22 09:04:55 N3MCO B2.7 miles 322°2019-07-22 13:24:13
N3MCO-B2.7 miles 322°2019-07-22 13:24:23 KC0DS-A2.7 miles 236°2019-07-22 13:05:33
KC0DS-B2.7 miles 236°2019-07-22 13:05:33 KC0DS-C2.7 miles 236°2019-07-22 13:05:33
Stations which heard K0JOH-9 directly on radio –
callsign pkts first heard - CDT last heard longest (tx => rx) longest at - CDT
WERNER 1 2019-07-07 10:14:22 2019-07-07 10:14:22 DM79CJ > DN60PK 89.3 miles 326° 2019-07-07 10:14:22
ALMGRE 3 2019-07-04 15:57:03 2019-07-04 19:06:20 DM68TQ > DM78MS 73.3 miles 85° 2019-07-04 15:57:03
RBERRY 7 2019-07-04 11:15:43 2019-07-04 14:32:48 DM68TP > DM58VH 102.9 miles 258° 2019-07-04 14:32:48
CLIMAX 1 2019-07-04 07:26:28 2019-07-04 07:26:28 DM79AF > DM69VJ 15.9 miles 315° 2019-07-04 07:26:28
METHOD 94 2019-07-04 07:08:04 2019-07-07 10:17:14 DM79CJ > DM68XK 67.2 miles 193° 2019-07-04 07:08:04
K0NR-1 13 2019-07-04 07:23:24 2019-07-07 10:19:57 DM79CK > DM78AV 37.7 miles 197° 2019-07-07 10:19:57
QUAIL 3 2019-07-04 06:40:08 2019-07-07 09:59:31 DM79GK > DM69TA 58.8 miles 240° 2019-07-04 06:40:08
BVILLE 2 2019-07-07 10:32:08 2019-07-07 11:01:29 DM79JO > DM79CQ 29.2 miles 279° 2019-07-07 11:01:29
AC0VP-10 4 2019-07-07 10:39:42 2019-07-07 10:46:13 DM79GJ > DM79GK 3.0 miles 61° 2019-07-07 10:39:42
K0XK-5 3 2019-07-04 06:10:17 2019-07-07 11:22:34 DM79GK > DM79OO 37.8 miles 69° 2019-07-04 06:44:28
N0EB 20 2019-07-04 08:21:50 2019-07-07 09:21:21 DM68WU > DM68XM 22.6 miles 162° 2019-07-04 08:21:50
KB0TUC-2 1 2019-07-04 10:24:33 2019-07-04 10:24:33 DM68VR > DM78HD 60.8 miles 131° 2019-07-04 10:24:33
K0MTN-10 1 2019-07-04 06:16:31 2019-07-04 06:16:31 DM79JP > DM79KO 2.0 miles 117° 2019-07-04 06:16:31
N0EPA-1 2 2019-07-07 10:48:39 2019-07-07 11:12:13 DM79HL > DN70KE 51.5 miles 17° 2019-07-07 10:48:39
PANDO 1 2019-07-04 08:50:33 2019-07-04 08:50:33 DM68WT > DM69TJ 43.4 miles 341° 2019-07-04 08:50:33
W0ARP 13 2019-07-04 06:17:37 2019-07-07 11:15:56 DM79FK > DM79QL 48.8 miles 84° 2019-07-04 06:52:34
TYLRPK 1 2019-07-04 17:38:57 2019-07-04 17:38:57 DM68SQ > DM68RU 11.3 miles 335° 2019-07-04 17:38:57
MNARCH 9 2019-07-04 10:05:51 2019-07-04 18:11:01 DM68WS > DM68TM 23.4 miles 215° 2019-07-04 10:05:51
WD4IXD-10 17 2019-07-04 06:02:29 2019-07-07 11:13:13 DM79JT > DM79LM 22.8 miles 151° 2019-07-04 06:03:23
BADGR 22 2019-07-04 07:10:36 2019-07-07 10:18:36 DM68WR > DM79FB 39.8 miles 57° 2019-07-04 19:54:01
W0ARP-3 34 2019-07-04 05:42:32 2019-07-07 11:38:15 DM79FK > DM79QL 48.1 miles 85° 2019-07-04 06:50:49
KB0TVJ-1 3 2019-07-07 10:59:33 2019-07-07 11:24:58 DM79JN > DN70JB 32.9 miles 3° 2019-07-07 10:59:33
N0AUX-1 6 2019-07-04 06:41:00 2019-07-07 10:52:02 DM79EK > DM79KG 28.5 miles 115° 2019-07-04 06:55:36
N6BA-10 2 2019-07-04 06:12:29 2019-07-07 10:56:01 DM79JQ > DM79OI 31.7 miles 139° 2019-07-04 06:12:29
WD4IXD-12 86 2019-07-04 07:12:37 2019-07-07 10:06:00 DM68UQ > DM79CC 40.4 miles 44° 2019-07-06 12:30:03
KD0FKS-10 2 2019-07-04 06:06:05 2019-07-04 06:11:04 DM79JR > DM79LV 14.3 miles 37° 2019-07-04 06:11:04
WA0GEH-10 2 2019-07-04 06:09:23 2019-07-07 11:17:46 DM79JR > DM79OU 24.0 miles 65° 2019-07-04 06:09:23
K0PRW-10 23 2019-07-04 05:36:07 2019-07-07 11:41:15 DM79JR > DM79JW 16.3 miles 6° 2019-07-07 11:12:45
KB3YHI-10 1 2019-07-04 06:19:58 2019-07-04 06:19:58 DM79JO > DM79MR 14.8 miles 61° 2019-07-04 06:19:58
K5RHD-15 3 2019-07-04 06:08:25 2019-07-07 11:15:15 DM79JO > DM79KU 18.2 miles 22° 2019-07-04 06:21:34
W0ARP-1 4 2019-07-04 06:20:42 2019-07-07 10:07:00 DM79BG > DM79QL 69.4 miles 78° 2019-07-04 07:18:58
K0LAI-10 7 2019-07-07 11:01:06 2019-07-07 11:11:04 DM79JO > DM79KQ 6.6 miles 38° 2019-07-07 11:01:06
W0UPS-15 13 2019-07-04 05:39:06 2019-07-07 11:41:43 DM79JO > DN70JN 63.9 miles 360° 2019-07-04 06:18:14

Only position packets which were originated by the station are shown here. The range statistics show some extra long hops, because some digipeaters do not correctly add themselves to the digipeater path. Please check the raw packets.
About this site
This page shows real-time information collected from the Automatic Position Reporting System Internet network (APRS-IS). APRS is used by amateur (ham) radio operators to transmit real-time position information, weather data, telemetry and messages over the radio. A vehicle equipped with a GPS receiver, a VHF transmitter or HF transceiver and a small computer device called a tracker transmits it's location, speed and course in a small data packet, which is then received by a nearby iGate receiving site which forwards the packet on the Internet. Systems connected to the Internet can send information on the APRS-IS without a radio transmitter, or collect and display information transmitted anywhere in the world.
FAQ · Blog · Discussion group · Linking to aprs.fi · AIS sites · Service status · Database statistics · Advertising on aprs.fi · Technical details · API · Change log · Planned changes · Credits and thanks · Terms Of Service · iPhone/iPad APRS